Schneifelwetter: Wetterstation Hallschlag, 537 m . NN
Wetterdaten: Sonntag, 11.04.2010
Datum Zeit Temp. A. Feuchte A. Luftdruck Regen Wind Richtung Richtung Sonnenschein Helligkeit T Regen Taupunkt Windchill
11.04.2010 00:10 1,6 C 85 % 1024 hPa 0,0 l/m 15,5 km/h (3 Bft) N-NO22.5 15 0 min 0 lux 0,00 min -0,6 C -5,3 C
11.04.2010 00:25 1,3 C 86 % 1024 hPa 0,0 l/m 13,1 km/h (3 Bft) N-NO22.5 30 0 min 0 lux 0,00 min -0,8 C -4,2 C
11.04.2010 00:40 1,1 C 87 % 1024 hPa 0,0 l/m 13,8 km/h (3 Bft) N-NO22.5 20 0 min 0 lux 0,00 min -0,8 C -4,9 C
11.04.2010 00:55 1,1 C 89 % 1024 hPa 0,0 l/m 17,9 km/h (3 Bft) N-NO22.5 30 0 min 0 lux 0,00 min -0,5 C -7,2 C
11.04.2010 01:10 0,9 C 88 % 1024 hPa 0,0 l/m 14,6 km/h (3 Bft) N-NO22.5 30 0 min 0 lux 0,00 min -0,9 C -5,7 C
11.04.2010 01:26 0,7 C 89 % 1024 hPa 0,0 l/m 11,6 km/h (2 Bft) N-NO 30 0 min 0 lux 0,00 min -0,9 C -3,9 C
11.04.2010 01:41 0,5 C 88 % 1024 hPa 0,0 l/m 10,0 km/h (2 Bft) NO22.5 35 0 min 0 lux 0,00 min -1,3 C -2,9 C
11.04.2010 01:56 0,2 C 88 % 1024 hPa 0,0 l/m 1,5 km/h (1 Bft) O-NO 70 0 min 0 lux 0,00 min -1,5 C 0,2 C
11.04.2010 02:11 -0,2 C 88 % 1024 hPa 0,0 l/m 0,4 km/h (0 Bft) O-NO 70 0 min 0 lux 0,00 min -1,9 C -0,2 C
11.04.2010 02:26 -0,2 C 89 % 1024 hPa 0,0 l/m 4,5 km/h (1 Bft) O-NO 65 0 min 0 lux 0,00 min -1,8 C -0,2 C
11.04.2010 02:41 -0,5 C 90 % 1024 hPa 0,0 l/m 4,0 km/h (1 Bft) N-NW45 335 0 min 0 lux 0,00 min -1,9 C -0,5 C
11.04.2010 02:56 -0,8 C 90 % 1023 hPa 0,0 l/m 0,1 km/h (0 Bft) NW 320 0 min 0 lux 0,00 min -2,2 C -0,8 C
11.04.2010 03:11 -0,8 C 91 % 1023 hPa 0,0 l/m 9,9 km/h (2 Bft) N-NO22.5 15 0 min 0 lux 0,00 min -2,1 C -4,2 C
11.04.2010 03:26 -0,3 C 93 % 1023 hPa 0,0 l/m 13,0 km/h (3 Bft) N-NO22.5 15 0 min 0 lux 0,00 min -1,3 C -6,1 C
11.04.2010 03:41 -0,2 C 93 % 1023 hPa 0,0 l/m 14,3 km/h (3 Bft) N-NO67.5 30 0 min 0 lux 0,00 min -1,2 C -6,8 C
11.04.2010 03:56 -0,2 C 93 % 1023 hPa 0,0 l/m 10,5 km/h (2 Bft) N-NO22.5 20 0 min 0 lux 0,00 min -1,2 C -4,1 C
11.04.2010 04:11 -0,2 C 94 % 1023 hPa 0,0 l/m 22,5 km/h (4 Bft) N22.5 5 0 min 0 lux 0,00 min -1,0 C -11,0 C
11.04.2010 04:26 0,1 C 95 % 1023 hPa 0,0 l/m 16,5 km/h (3 Bft) N22.5 5 0 min 0 lux 0,00 min -0,6 C -7,7 C
11.04.2010 04:41 -0,2 C 93 % 1023 hPa 0,0 l/m 8,4 km/h (2 Bft) N22.5 5 0 min 0 lux 0,00 min -1,2 C -2,2 C
11.04.2010 04:56 -0,5 C 94 % 1023 hPa 0,0 l/m 10,7 km/h (2 Bft) N-NO22.5 20 0 min 0 lux 0,00 min -1,3 C -4,6 C
11.04.2010 05:11 -1,2 C 92 % 1022 hPa 0,0 l/m 0,1 km/h (0 Bft) N-NO 20 0 min 0 lux 0,00 min -2,3 C -1,2 C
11.04.2010 05:26 -1,7 C 92 % 1022 hPa 0,0 l/m 0,0 km/h (0 Bft) N-NO 20 0 min 0 lux 0,00 min -2,8 C -1,7 C
11.04.2010 05:41 -2,0 C 92 % 1022 hPa 0,0 l/m 0,0 km/h (0 Bft) N-NO 20 0 min 0 lux 0,00 min -3,1 C -2,0 C
11.04.2010 05:55 -2,1 C 93 % 1022 hPa 0,0 l/m 1,3 km/h (1 Bft) N-NO 20 0 min 0 lux 0,00 min -3,1 C -2,1 C
11.04.2010 06:10 -1,9 C 93 % 1022 hPa 0,0 l/m 0,6 km/h (0 Bft) N-NO 20 0 min 0 lux 0,00 min -2,9 C -1,9 C
11.04.2010 06:25 -1,5 C 94 % 1022 hPa 0,0 l/m 6,7 km/h (2 Bft) N-NO67.5 15 0 min 0 lux 0,00 min -2,3 C -1,8 C
11.04.2010 06:40 -1,2 C 95 % 1022 hPa 0,0 l/m 8,9 km/h (2 Bft) N 350 0 min 292 lux 0,00 min -1,9 C -3,8 C
11.04.2010 06:55 -1,1 C 95 % 1022 hPa 0,0 l/m 8,8 km/h (2 Bft) N22.5 355 0 min 1,09 klux 0,00 min -1,8 C -3,6 C
11.04.2010 07:10 -1,1 C 94 % 1022 hPa 0,0 l/m 5,7 km/h (1 Bft) N 360 0 min 1,90 klux 0,00 min -1,9 C -1,1 C
11.04.2010 07:25 -0,5 C 96 % 1022 hPa 0,0 l/m 16,6 km/h (3 Bft) N67.5 10 0 min 2,58 klux 0,00 min -1,1 C -8,5 C
11.04.2010 07:40 -0,2 C 96 % 1022 hPa 0,0 l/m 16,3 km/h (3 Bft) N22.5 10 0 min 2,92 klux 0,00 min -0,8 C -8,0 C
11.04.2010 07:55 0,1 C 96 % 1021 hPa 0,0 l/m 13,2 km/h (3 Bft) N-NO45 15 0 min 4,83 klux 0,00 min -0,5 C -5,7 C
11.04.2010 08:10 0,4 C 96 % 1022 hPa 0,0 l/m 17,2 km/h (3 Bft) N-NO22.5 15 0 min 5,39 klux 0,00 min -0,2 C -7,7 C
11.04.2010 08:25 0,6 C 97 % 1022 hPa 0,0 l/m 23,7 km/h (4 Bft) N22.5 10 0 min 6,35 klux 0,00 min 0,2 C -10,4 C
11.04.2010 08:40 0,8 C 96 % 1021 hPa 0,0 l/m 22,1 km/h (4 Bft) N-NO67.5 30 0 min 9,4 klux 0,00 min 0,2 C -9,5 C
11.04.2010 08:55 0,7 C 95 % 1021 hPa 0,0 l/m 20,0 km/h (4 Bft) N-NO45 20 0 min 8,21 klux 0,00 min -0,0 C -8,7 C
11.04.2010 09:10 1,2 C 95 % 1021 hPa 0,0 l/m 16,6 km/h (3 Bft) N-NO22.5 25 0 min 17,1 klux 0,00 min 0,5 C -6,4 C
11.04.2010 09:31 1,7 C 94 % 1021 hPa 0,0 l/m 13,0 km/h (3 Bft) N22.5 5 0 min 19,2 klux 0,00 min 0,8 C -3,7 C
11.04.2010 09:46 2,1 C 92 % 1021 hPa 0,0 l/m 27,8 km/h (4 Bft) NO45 40 0 min 19,4 klux 0,00 min 0,9 C -9,8 C
11.04.2010 10:02 2,2 C 91 % 1021 hPa 0,0 l/m 35,0 km/h (5 Bft) N-NO45 25 0 min 19,1 klux 0,00 min 0,9 C -11,6 C
11.04.2010 10:16 2,3 C 90 % 1021 hPa 0,0 l/m 32,4 km/h (5 Bft) N-NO45 15 0 min 21,4 klux 0,00 min 0,8 C -10,8 C
11.04.2010 10:31 2,4 C 90 % 1021 hPa 0,0 l/m 28,6 km/h (4 Bft) N-NO45 25 0 min 19,6 klux 0,00 min 0,9 C -9,6 C
11.04.2010 10:46 2,7 C 90 % 1021 hPa 0,0 l/m 27,3 km/h (4 Bft) N-NO22.5 15 0 min 21,2 klux 0,00 min 1,2 C -8,8 C
11.04.2010 11:01 2,9 C 89 % 1021 hPa 0,0 l/m 27,8 km/h (4 Bft) N-NO45 25 0 min 26,7 klux 0,00 min 1,3 C -8,7 C
11.04.2010 11:16 2,7 C 89 % 1021 hPa 0,0 l/m 32,2 km/h (5 Bft) N-NO22.5 25 0 min 22,1 klux 0,00 min 1,1 C -10,2 C
11.04.2010 11:31 3,0 C 90 % 1021 hPa 0,0 l/m 28,5 km/h (4 Bft) N-NO22.5 25 0 min 23,3 klux 0,00 min 1,5 C -8,8 C
11.04.2010 11:47 3,3 C 88 % 1021 hPa 0,0 l/m 27,6 km/h (4 Bft) N-NO45 25 0 min 22,8 klux 0,00 min 1,5 C -8,1 C
11.04.2010 12:02 3,2 C 86 % 1021 hPa 0,0 l/m 26,2 km/h (4 Bft) NO45 45 0 min 15,0 klux 0,00 min 1,1 C -7,8 C
11.04.2010 12:16 3,1 C 86 % 1021 hPa 0,0 l/m 27,1 km/h (4 Bft) NO22.5 45 0 min 18,1 klux 0,00 min 1,0 C -8,2 C
11.04.2010 12:31 3,2 C 85 % 1021 hPa 0,0 l/m 29,8 km/h (5 Bft) N-NO67.5 25 0 min 15,8 klux 0,00 min 0,9 C -8,9 C
11.04.2010 12:46 3,6 C 84 % 1021 hPa 0,0 l/m 19,5 km/h (3 Bft) NO45 50 0 min 23,7 klux 0,00 min 1,2 C -4,8 C
11.04.2010 13:01 3,6 C 83 % 1021 hPa 0,0 l/m 31,2 km/h (5 Bft) O-NO45 60 0 min 25,1 klux 0,00 min 1,0 C -8,7 C
11.04.2010 13:16 4,7 C 83 % 1021 hPa 0,0 l/m 24,0 km/h (4 Bft) N-NO22.5 15 15 min 93,7 klux 0,00 min 2,1 C -5,0 C
11.04.2010 13:32 4,9 C 79 % 1020 hPa 0,0 l/m 24,0 km/h (4 Bft) N-NO45 20 0 min 42,7 klux 0,00 min 1,6 C -4,8 C
11.04.2010 13:47 4,9 C 78 % 1021 hPa 0,0 l/m 21,5 km/h (4 Bft) N-NO67.5 15 0 min 35,7 klux 0,00 min 1,4 C -3,9 C
11.04.2010 14:01 4,5 C 77 % 1021 hPa 0,0 l/m 28,5 km/h (4 Bft) N22.5 5 0 min 19,6 klux 0,00 min 0,8 C -6,7 C
11.04.2010 14:16 4,2 C 79 % 1020 hPa 0,0 l/m 29,4 km/h (5 Bft) N-NO22.5 25 0 min 14,0 klux 0,00 min 0,9 C -7,3 C
11.04.2010 14:31 4,5 C 79 % 1020 hPa 0,0 l/m 29,0 km/h (5 Bft) N-NO22.5 25 0 min 25,5 klux 0,00 min 1,2 C -6,8 C
11.04.2010 14:46 4,5 C 78 % 1020 hPa 0,0 l/m 33,9 km/h (5 Bft) N-NO45 25 0 min 29,3 klux 0,00 min 1,0 C -8,0 C
11.04.2010 15:01 4,7 C 75 % 1020 hPa 0,0 l/m 36,8 km/h (5 Bft) N-NO45 25 0 min 35,7 klux 0,00 min 0,7 C -8,4 C
11.04.2010 15:17 5,2 C 71 % 1020 hPa 0,0 l/m 37,9 km/h (5 Bft) NO67.5 45 0 min 26,9 klux 0,00 min 0,4 C -7,8 C
11.04.2010 15:31 4,7 C 73 % 1020 hPa 0,0 l/m 37,5 km/h (5 Bft) N-NO22.5 25 0 min 24,7 klux 0,00 min 0,3 C -8,5 C
11.04.2010 15:46 4,2 C 76 % 1020 hPa 0,0 l/m 32,8 km/h (5 Bft) N-NO67.5 15 0 min 14,1 klux 0,00 min 0,4 C -8,2 C
11.04.2010 16:01 3,8 C 80 % 1020 hPa 0,0 l/m 34,1 km/h (5 Bft) N-NO45 25 0 min 19,2 klux 0,00 min 0,7 C -9,1 C
11.04.2010 16:16 3,8 C 80 % 1020 hPa 0,0 l/m 34,6 km/h (5 Bft) N-NO22.5 25 0 min 20,3 klux 0,00 min 0,7 C -9,2 C
11.04.2010 16:31 4,4 C 78 % 1020 hPa 0,0 l/m 32,2 km/h (5 Bft) N-NO22.5 25 0 min 36,4 klux 0,00 min 0,9 C -7,8 C
11.04.2010 16:46 4,7 C 75 % 1020 hPa 0,0 l/m 31,0 km/h (5 Bft) NO22.5 35 0 min 30,6 klux 0,00 min 0,7 C -7,1 C
11.04.2010 17:02 4,7 C 75 % 1019 hPa 0,0 l/m 33,2 km/h (5 Bft) N-NO45 20 0 min 40,5 klux 0,00 min 0,7 C -7,6 C
11.04.2010 17:16 5,2 C 73 % 1019 hPa 0,0 l/m 38,4 km/h (5 Bft) N-NO45 20 14 min 60,3 klux 0,00 min 0,8 C -7,9 C
11.04.2010 17:31 5,5 C 73 % 1019 hPa 0,0 l/m 36,4 km/h (5 Bft) N-NO22.5 20 15 min 61,5 klux 0,00 min 1,1 C -7,1 C
11.04.2010 17:46 5,6 C 75 % 1019 hPa 0,0 l/m 33,4 km/h (5 Bft) N-NO67.5 25 15 min 54,3 klux 0,00 min 1,5 C -6,3 C
11.04.2010 18:01 4,9 C 73 % 1019 hPa 0,0 l/m 41,9 km/h (6 Bft) N-NO67.5 30 15 min 52,1 klux 0,00 min 0,5 C -9,0 C
11.04.2010 18:16 4,5 C 74 % 1019 hPa 0,0 l/m 31,7 km/h (5 Bft) N-NO22.5 25 0 min 17,8 klux 0,00 min 0,3 C -7,5 C
11.04.2010 18:32 5,1 C 73 % 1019 hPa 0,0 l/m 27,9 km/h (4 Bft) N-NO22.5 30 0 min 39,5 klux 0,00 min 0,7 C -5,7 C
11.04.2010 18:47 5,1 C 71 % 1019 hPa 0,0 l/m 33,5 km/h (5 Bft) NO67.5 40 0 min 17,8 klux 0,00 min 0,3 C -7,1 C
11.04.2010 19:01 4,4 C 74 % 1019 hPa 0,0 l/m 30,6 km/h (5 Bft) NO22.5 35 0 min 1,89 klux 0,00 min 0,2 C -7,4 C
11.04.2010 19:16 3,9 C 77 % 1019 hPa 0,0 l/m 22,8 km/h (4 Bft) O-NO45 70 0 min 15,8 klux 0,00 min 0,2 C -5,7 C
11.04.2010 19:31 3,5 C 78 % 1019 hPa 0,0 l/m 25,9 km/h (4 Bft) NO22.5 45 0 min 15,6 klux 0,00 min 0,0 C -7,3 C
11.04.2010 19:46 3,1 C 79 % 1019 hPa 0,0 l/m 21,3 km/h (4 Bft) N-NO22.5 30 0 min 4,55 klux 0,00 min -0,2 C -6,2 C
11.04.2010 20:01 2,9 C 80 % 1019 hPa 0,0 l/m 23,7 km/h (4 Bft) N-NO22.5 30 0 min 3,72 klux 0,00 min -0,2 C -7,3 C
11.04.2010 20:17 2,7 C 80 % 1019 hPa 0,0 l/m 23,9 km/h (4 Bft) NO22.5 40 0 min 1,88 klux 0,00 min -0,4 C -7,7 C
11.04.2010 20:32 2,5 C 81 % 1019 hPa 0,0 l/m 18,7 km/h (3 Bft) O-NO22.5 60 0 min 852 lux 0,00 min -0,4 C -5,8 C
11.04.2010 20:46 2,2 C 83 % 1019 hPa 0,0 l/m 21,2 km/h (4 Bft) NO22.5 35 0 min 212 lux 0,00 min -0,4 C -7,3 C
11.04.2010 21:01 1,9 C 83 % 1019 hPa 0,0 l/m 23,1 km/h (4 Bft) N-NO22.5 30 0 min 30 lux 0,00 min -0,7 C -8,4 C
11.04.2010 21:16 1,9 C 84 % 1020 hPa 0,0 l/m 17,0 km/h (3 Bft) NO22.5 55 0 min 7 lux 0,00 min -0,5 C -5,8 C
11.04.2010 21:31 2,3 C 84 % 1020 hPa 0,0 l/m 22,3 km/h (4 Bft) NO22.5 40 0 min 1 lux 0,00 min -0,1 C -7,6 C
11.04.2010 21:47 2,5 C 83 % 1020 hPa 0,0 l/m 28,5 km/h (4 Bft) N-NO22.5 25 0 min 0 lux 0,00 min -0,1 C -9,5 C
11.04.2010 22:02 2,2 C 85 % 1020 hPa 0,0 l/m 28,5 km/h (4 Bft) N-NO22.5 30 0 min 0 lux 0,00 min -0,1 C -9,9 C
11.04.2010 22:16 1,9 C 86 % 1020 hPa 0,0 l/m 23,8 km/h (4 Bft) N-NO22.5 30 0 min 0 lux 0,00 min -0,2 C -8,7 C
11.04.2010 22:31 1,6 C 87 % 1020 hPa 0,0 l/m 22,2 km/h (4 Bft) N-NO22.5 30 0 min 0 lux 0,00 min -0,3 C -8,5 C
11.04.2010 22:46 1,3 C 88 % 1020 hPa 0,0 l/m 18,5 km/h (3 Bft) N-NO22.5 30 0 min 0 lux 0,00 min -0,5 C -7,3 C
11.04.2010 23:01 1,2 C 89 % 1020 hPa 0,0 l/m 20,0 km/h (4 Bft) N-NO22.5 30 0 min 0 lux 0,00 min -0,4 C -8,1 C
11.04.2010 23:16 1,1 C 90 % 1020 hPa 0,0 l/m 22,9 km/h (4 Bft) N-NO22.5 30 0 min 0 lux 0,00 min -0,4 C -9,4 C
11.04.2010 23:32 1,2 C 90 % 1020 hPa 0,0 l/m 24,8 km/h (4 Bft) N-NO22.5 25 0 min 0 lux 0,00 min -0,3 C -10,0 C
11.04.2010 23:46 1,2 C 90 % 1020 hPa 0,0 l/m 30,1 km/h (5 Bft) N-NO45 25 0 min 0 lux 0,00 min -0,3 C -11,7 C
_ Min-Zeit 05:55 15:17 17:02 - 05:26 - - - - - 05:41 23:46
Minimum _ -2,1 C 71 % 1019 hPa - 0,0 km/h (0 Bft) - - - - - -3,1 C -11,7 C
_ Max-Zeit 17:46 08:25 00:10 00:10 18:01 - - 13:16 13:16 00:10 13:16 01:56
Maximum _ 5,6 C 97 % 1024 hPa 0,0 l/m 41,9 km/h
N-NO (6 Bft)
- - 15 min 93,7 klux 0,00 min 2,1 C 0,2 C
Durchschnitt _ 2,0 C 86 % 1021 hPa #0,0 l/m 21,2 km/h (4 Bft) N-NO - #1:14 h 12,9 klux #0 min. -0,2 C -6,5 C